Terminal Aerodrome Forecast
Issued by NWS Shreveport, LA

Home | Current Version | Previous Version | Text Only | Print | Product List | Glossary On
Versions: 1 2 3 4 5 6 7 8 9 10 11 12
000
FTUS44 KSHV 282300
TAFMLU
TAF
KMLU 282334Z 2900/2924 18006KT P6SM SKC
      TEMPO 2906/2910 BKN030
     FM291000 19007KT P6SM OVC025
      TEMPO 2910/2914 3SM BR OVC010
     FM291400 20010KT 5SM BR OVC010
     FM291600 21012KT P6SM OVC015
     FM291700 21012G18KT P6SM BKN035
     FM292000 21012G18KT P6SM SCT040=

USA.gov is the U.S. government's official web portal to all federal, state and local government web resources and services.